sensor_id;sensor_type;location;lat;lon;timestamp;temperature;humidity
12872;DHT22;6504;53.766;9.626;2022-10-30T00:00:40;14.60;99.90
12872;DHT22;6504;53.766;9.626;2022-10-30T00:03:10;14.60;99.90
12872;DHT22;6504;53.766;9.626;2022-10-30T00:05:40;14.70;99.90
12872;DHT22;6504;53.766;9.626;2022-10-30T00:08:10;14.60;99.90
12872;DHT22;6504;53.766;9.626;2022-10-30T00:10:39;14.60;99.90
12872;DHT22;6504;53.766;9.626;2022-10-30T00:13:08;14.60;99.90
12872;DHT22;6504;53.766;9.626;2022-10-30T00:15:37;14.60;99.90
12872;DHT22;6504;53.766;9.626;2022-10-30T00:18:05;14.60;99.90
12872;DHT22;6504;53.766;9.626;2022-10-30T00:20:35;14.60;99.90
12872;DHT22;6504;53.766;9.626;2022-10-30T00:23:03;14.60;99.90
12872;DHT22;6504;53.766;9.626;2022-10-30T00:25:33;14.60;99.90
12872;DHT22;6504;53.766;9.626;2022-10-30T00:28:02;14.60;99.90
12872;DHT22;6504;53.766;9.626;2022-10-30T00:30:32;14.60;99.90
12872;DHT22;6504;53.766;9.626;2022-10-30T00:33:02;14.60;99.90
12872;DHT22;6504;53.766;9.626;2022-10-30T00:35:30;14.60;99.90
12872;DHT22;6504;53.766;9.626;2022-10-30T00:37:59;14.70;99.90
12872;DHT22;6504;53.766;9.626;2022-10-30T00:40:28;14.70;99.90
12872;DHT22;6504;53.766;9.626;2022-10-30T00:42:56;14.60;99.90
12872;DHT22;6504;53.766;9.626;2022-10-30T00:45:24;14.60;99.90
12872;DHT22;6504;53.766;9.626;2022-10-30T00:47:55;14.60;99.90
12872;DHT22;6504;53.766;9.626;2022-10-30T00:50:28;14.50;99.90
12872;DHT22;6504;53.766;9.626;2022-10-30T00:53:00;14.50;99.90
12872;DHT22;6504;53.766;9.626;2022-10-30T00:55:32;14.50;99.90
12872;DHT22;6504;53.766;9.626;2022-10-30T00:58:05;14.50;99.90
12872;DHT22;6504;53.766;9.626;2022-10-30T01:00:35;14.50;99.90
12872;DHT22;6504;53.766;9.626;2022-10-30T01:03:06;14.40;99.90
12872;DHT22;6504;53.766;9.626;2022-10-30T01:05:36;14.40;99.90
12872;DHT22;6504;53.766;9.626;2022-10-30T01:08:04;14.40;99.90
12872;DHT22;6504;53.766;9.626;2022-10-30T01:10:32;14.30;99.90
12872;DHT22;6504;53.766;9.626;2022-10-30T01:13:01;14.30;99.90
12872;DHT22;6504;53.766;9.626;2022-10-30T01:15:34;14.30;99.90
12872;DHT22;6504;53.766;9.626;2022-10-30T01:18:16;14.20;99.90
12872;DHT22;6504;53.766;9.626;2022-10-30T01:21:06;14.20;99.90
12872;DHT22;6504;53.766;9.626;2022-10-30T01:23:52;14.20;99.90
12872;DHT22;6504;53.766;9.626;2022-10-30T01:26:30;14.20;99.90
12872;DHT22;6504;53.766;9.626;2022-10-30T01:29:14;14.30;99.90
12872;DHT22;6504;53.766;9.626;2022-10-30T01:31:55;14.20;99.90
12872;DHT22;6504;53.766;9.626;2022-10-30T01:34:32;14.20;99.90
12872;DHT22;6504;53.766;9.626;2022-10-30T01:37:08;14.30;99.90
12872;DHT22;6504;53.766;9.626;2022-10-30T01:39:38;14.30;99.90
12872;DHT22;6504;53.766;9.626;2022-10-30T01:42:08;14.30;99.90
12872;DHT22;6504;53.766;9.626;2022-10-30T01:44:36;14.30;99.90
12872;DHT22;6504;53.766;9.626;2022-10-30T01:47:14;14.30;99.90
12872;DHT22;6504;53.766;9.626;2022-10-30T01:50:02;14.30;99.90
12872;DHT22;6504;53.766;9.626;2022-10-30T01:52:40;14.20;99.90
12872;DHT22;6504;53.766;9.626;2022-10-30T01:55:15;14.30;99.90
12872;DHT22;6504;53.766;9.626;2022-10-30T01:57:50;14.30;99.90
12872;DHT22;6504;53.766;9.626;2022-10-30T02:00:21;14.30;99.90
12872;DHT22;6504;53.766;9.626;2022-10-30T02:02:50;14.30;99.90
12872;DHT22;6504;53.766;9.626;2022-10-30T02:05:24;14.20;99.90
12872;DHT22;6504;53.766;9.626;2022-10-30T02:07:55;14.20;99.90
12872;DHT22;6504;53.766;9.626;2022-10-30T02:10:23;14.20;99.90
12872;DHT22;6504;53.766;9.626;2022-10-30T02:12:53;14.20;99.90
12872;DHT22;6504;53.766;9.626;2022-10-30T02:15:21;14.20;99.90
12872;DHT22;6504;53.766;9.626;2022-10-30T02:17:49;14.20;99.90
12872;DHT22;6504;53.766;9.626;2022-10-30T02:20:19;14.20;99.90
12872;DHT22;6504;53.766;9.626;2022-10-30T02:22:48;14.20;99.90
12872;DHT22;6504;53.766;9.626;2022-10-30T02:25:22;14.20;99.90
12872;DHT22;6504;53.766;9.626;2022-10-30T02:27:50;14.20;99.90
12872;DHT22;6504;53.766;9.626;2022-10-30T02:30:18;14.10;99.90
12872;DHT22;6504;53.766;9.626;2022-10-30T02:32:46;14.10;99.90
12872;DHT22;6504;53.766;9.626;2022-10-30T02:35:14;14.10;99.90
12872;DHT22;6504;53.766;9.626;2022-10-30T02:37:43;14.10;99.90
12872;DHT22;6504;53.766;9.626;2022-10-30T02:40:14;14.10;99.90
12872;DHT22;6504;53.766;9.626;2022-10-30T02:42:42;14.10;99.90
12872;DHT22;6504;53.766;9.626;2022-10-30T02:45:10;14.00;99.90
12872;DHT22;6504;53.766;9.626;2022-10-30T02:47:38;14.00;99.90
12872;DHT22;6504;53.766;9.626;2022-10-30T02:50:07;14.00;99.90
12872;DHT22;6504;53.766;9.626;2022-10-30T02:52:35;14.00;99.90
12872;DHT22;6504;53.766;9.626;2022-10-30T02:55:05;14.00;99.90
12872;DHT22;6504;53.766;9.626;2022-10-30T02:57:33;14.00;99.90
12872;DHT22;6504;53.766;9.626;2022-10-30T03:00:02;14.00;99.90
12872;DHT22;6504;53.766;9.626;2022-10-30T03:02:30;13.90;99.90
12872;DHT22;6504;53.766;9.626;2022-10-30T03:04:58;14.00;99.90
12872;DHT22;6504;53.766;9.626;2022-10-30T03:07:26;13.90;99.90
12872;DHT22;6504;53.766;9.626;2022-10-30T03:09:54;13.90;99.90
12872;DHT22;6504;53.766;9.626;2022-10-30T03:12:24;13.90;99.90
12872;DHT22;6504;53.766;9.626;2022-10-30T03:14:51;13.80;99.90
12872;DHT22;6504;53.766;9.626;2022-10-30T03:17:19;13.80;99.90
12872;DHT22;6504;53.766;9.626;2022-10-30T03:19:47;13.80;99.90
12872;DHT22;6504;53.766;9.626;2022-10-30T03:22:17;13.80;99.90
12872;DHT22;6504;53.766;9.626;2022-10-30T03:24:45;13.80;99.90
12872;DHT22;6504;53.766;9.626;2022-10-30T03:27:13;13.70;99.90
12872;DHT22;6504;53.766;9.626;2022-10-30T03:29:42;13.70;99.90
12872;DHT22;6504;53.766;9.626;2022-10-30T03:32:10;13.70;99.90
12872;DHT22;6504;53.766;9.626;2022-10-30T03:34:38;13.70;99.90
12872;DHT22;6504;53.766;9.626;2022-10-30T03:37:06;13.70;99.90
12872;DHT22;6504;53.766;9.626;2022-10-30T03:39:34;13.70;99.90
12872;DHT22;6504;53.766;9.626;2022-10-30T03:42:02;13.70;99.90
12872;DHT22;6504;53.766;9.626;2022-10-30T03:44:30;13.70;99.90
12872;DHT22;6504;53.766;9.626;2022-10-30T03:47:00;13.70;99.90
12872;DHT22;6504;53.766;9.626;2022-10-30T03:49:28;13.70;99.90
12872;DHT22;6504;53.766;9.626;2022-10-30T03:51:56;13.70;99.90
12872;DHT22;6504;53.766;9.626;2022-10-30T03:54:24;13.70;99.90
12872;DHT22;6504;53.766;9.626;2022-10-30T03:56:52;13.70;99.90
12872;DHT22;6504;53.766;9.626;2022-10-30T03:59:20;13.70;99.90
12872;DHT22;6504;53.766;9.626;2022-10-30T04:01:48;13.70;99.90
12872;DHT22;6504;53.766;9.626;2022-10-30T04:04:17;13.60;99.90
12872;DHT22;6504;53.766;9.626;2022-10-30T04:06:47;13.60;99.90
12872;DHT22;6504;53.766;9.626;2022-10-30T04:09:14;13.60;99.90
12872;DHT22;6504;53.766;9.626;2022-10-30T04:11:43;13.50;99.90
12872;DHT22;6504;53.766;9.626;2022-10-30T04:14:11;13.50;99.90
12872;DHT22;6504;53.766;9.626;2022-10-30T04:16:39;13.50;99.90
12872;DHT22;6504;53.766;9.626;2022-10-30T04:19:07;13.50;99.90
12872;DHT22;6504;53.766;9.626;2022-10-30T04:21:36;13.50;99.90
12872;DHT22;6504;53.766;9.626;2022-10-30T04:24:04;13.50;99.90
12872;DHT22;6504;53.766;9.626;2022-10-30T04:26:32;13.50;99.90
12872;DHT22;6504;53.766;9.626;2022-10-30T04:29:00;13.50;99.90
12872;DHT22;6504;53.766;9.626;2022-10-30T04:31:28;13.50;99.90
12872;DHT22;6504;53.766;9.626;2022-10-30T04:33:56;13.50;99.90
12872;DHT22;6504;53.766;9.626;2022-10-30T04:36:24;13.50;99.90
12872;DHT22;6504;53.766;9.626;2022-10-30T04:38:57;13.50;99.90
12872;DHT22;6504;53.766;9.626;2022-10-30T04:41:25;13.50;99.90
12872;DHT22;6504;53.766;9.626;2022-10-30T04:43:53;13.50;99.90
12872;DHT22;6504;53.766;9.626;2022-10-30T04:46:21;13.50;99.90
12872;DHT22;6504;53.766;9.626;2022-10-30T04:48:49;13.50;99.90
12872;DHT22;6504;53.766;9.626;2022-10-30T04:51:18;13.40;99.90
12872;DHT22;6504;53.766;9.626;2022-10-30T04:53:45;13.40;99.90
12872;DHT22;6504;53.766;9.626;2022-10-30T04:56:15;13.40;99.90
12872;DHT22;6504;53.766;9.626;2022-10-30T04:58:43;13.40;99.90
12872;DHT22;6504;53.766;9.626;2022-10-30T05:01:12;13.40;99.90
12872;DHT22;6504;53.766;9.626;2022-10-30T05:03:40;13.50;99.90
12872;DHT22;6504;53.766;9.626;2022-10-30T05:06:22;13.40;99.90
12872;DHT22;6504;53.766;9.626;2022-10-30T05:08:51;13.50;99.90
12872;DHT22;6504;53.766;9.626;2022-10-30T05:11:20;13.50;99.90
12872;DHT22;6504;53.766;9.626;2022-10-30T05:13:48;13.50;99.90
12872;DHT22;6504;53.766;9.626;2022-10-30T05:16:16;13.50;99.90
12872;DHT22;6504;53.766;9.626;2022-10-30T05:18:44;13.40;99.90
12872;DHT22;6504;53.766;9.626;2022-10-30T05:21:12;13.40;99.90
12872;DHT22;6504;53.766;9.626;2022-10-30T05:23:40;13.40;99.90
12872;DHT22;6504;53.766;9.626;2022-10-30T05:26:08;13.40;99.90
12872;DHT22;6504;53.766;9.626;2022-10-30T05:28:38;13.40;99.90
12872;DHT22;6504;53.766;9.626;2022-10-30T05:31:08;13.40;99.90
12872;DHT22;6504;53.766;9.626;2022-10-30T05:33:36;13.50;99.90
12872;DHT22;6504;53.766;9.626;2022-10-30T05:36:04;13.50;99.90
12872;DHT22;6504;53.766;9.626;2022-10-30T05:38:32;13.50;99.90
12872;DHT22;6504;53.766;9.626;2022-10-30T05:41:00;13.40;99.90
12872;DHT22;6504;53.766;9.626;2022-10-30T05:43:28;13.40;99.90
12872;DHT22;6504;53.766;9.626;2022-10-30T05:45:58;13.50;99.90
12872;DHT22;6504;53.766;9.626;2022-10-30T05:48:26;13.40;99.90
12872;DHT22;6504;53.766;9.626;2022-10-30T05:50:54;13.50;99.90
12872;DHT22;6504;53.766;9.626;2022-10-30T05:53:23;13.40;99.90
12872;DHT22;6504;53.766;9.626;2022-10-30T05:55:55;13.40;99.90
12872;DHT22;6504;53.766;9.626;2022-10-30T05:58:23;13.40;99.90
12872;DHT22;6504;53.766;9.626;2022-10-30T06:00:51;13.40;99.90
12872;DHT22;6504;53.766;9.626;2022-10-30T06:03:20;13.40;99.90
12872;DHT22;6504;53.766;9.626;2022-10-30T06:05:48;13.30;99.90
12872;DHT22;6504;53.766;9.626;2022-10-30T06:08:16;13.30;99.90
12872;DHT22;6504;53.766;9.626;2022-10-30T06:10:45;13.30;99.90
12872;DHT22;6504;53.766;9.626;2022-10-30T06:13:13;13.30;99.90
12872;DHT22;6504;53.766;9.626;2022-10-30T06:15:41;13.30;99.90
12872;DHT22;6504;53.766;9.626;2022-10-30T06:18:09;13.30;99.90
12872;DHT22;6504;53.766;9.626;2022-10-30T06:20:39;13.30;99.90
12872;DHT22;6504;53.766;9.626;2022-10-30T06:23:08;13.30;99.90
12872;DHT22;6504;53.766;9.626;2022-10-30T06:25:36;13.20;99.90
12872;DHT22;6504;53.766;9.626;2022-10-30T06:28:08;13.20;99.90
12872;DHT22;6504;53.766;9.626;2022-10-30T06:30:37;13.20;99.90
12872;DHT22;6504;53.766;9.626;2022-10-30T06:33:05;13.30;99.90
12872;DHT22;6504;53.766;9.626;2022-10-30T06:35:33;13.20;99.90
12872;DHT22;6504;53.766;9.626;2022-10-30T06:38:03;13.20;99.90
12872;DHT22;6504;53.766;9.626;2022-10-30T06:40:32;13.20;99.90
12872;DHT22;6504;53.766;9.626;2022-10-30T06:43:00;13.20;99.90
12872;DHT22;6504;53.766;9.626;2022-10-30T06:45:28;13.20;99.90
12872;DHT22;6504;53.766;9.626;2022-10-30T06:47:56;13.20;99.90
12872;DHT22;6504;53.766;9.626;2022-10-30T06:50:25;13.20;99.90
12872;DHT22;6504;53.766;9.626;2022-10-30T06:52:53;13.10;99.90
12872;DHT22;6504;53.766;9.626;2022-10-30T06:55:23;13.10;99.90
12872;DHT22;6504;53.766;9.626;2022-10-30T06:57:54;13.10;99.90
12872;DHT22;6504;53.766;9.626;2022-10-30T07:00:23;13.20;99.90
12872;DHT22;6504;53.766;9.626;2022-10-30T07:02:58;13.10;99.90
12872;DHT22;6504;53.766;9.626;2022-10-30T07:05:28;13.10;99.90
12872;DHT22;6504;53.766;9.626;2022-10-30T07:07:57;13.10;99.90
12872;DHT22;6504;53.766;9.626;2022-10-30T07:10:26;13.10;99.90
12872;DHT22;6504;53.766;9.626;2022-10-30T07:12:55;13.10;99.90
12872;DHT22;6504;53.766;9.626;2022-10-30T07:15:25;13.10;99.90
12872;DHT22;6504;53.766;9.626;2022-10-30T07:17:55;13.10;99.90
12872;DHT22;6504;53.766;9.626;2022-10-30T07:20:24;13.10;99.90
12872;DHT22;6504;53.766;9.626;2022-10-30T07:22:53;13.10;99.90
12872;DHT22;6504;53.766;9.626;2022-10-30T07:25:21;13.10;99.90
12872;DHT22;6504;53.766;9.626;2022-10-30T07:27:52;13.10;99.90
12872;DHT22;6504;53.766;9.626;2022-10-30T07:30:21;13.00;99.90
12872;DHT22;6504;53.766;9.626;2022-10-30T07:32:57;13.00;99.90
12872;DHT22;6504;53.766;9.626;2022-10-30T07:35:26;13.00;99.90
12872;DHT22;6504;53.766;9.626;2022-10-30T07:37:55;13.10;99.90
12872;DHT22;6504;53.766;9.626;2022-10-30T07:40:23;13.00;99.90
12872;DHT22;6504;53.766;9.626;2022-10-30T07:42:56;13.10;99.90
12872;DHT22;6504;53.766;9.626;2022-10-30T07:45:25;13.10;99.90
12872;DHT22;6504;53.766;9.626;2022-10-30T07:47:53;13.10;99.90
12872;DHT22;6504;53.766;9.626;2022-10-30T07:50:23;13.10;99.90
12872;DHT22;6504;53.766;9.626;2022-10-30T07:52:51;13.10;99.90
12872;DHT22;6504;53.766;9.626;2022-10-30T07:55:19;13.10;99.90
12872;DHT22;6504;53.766;9.626;2022-10-30T07:57:47;13.10;99.90
12872;DHT22;6504;53.766;9.626;2022-10-30T08:00:17;13.10;99.90
12872;DHT22;6504;53.766;9.626;2022-10-30T08:02:48;13.10;99.90
12872;DHT22;6504;53.766;9.626;2022-10-30T08:05:16;13.10;99.90
12872;DHT22;6504;53.766;9.626;2022-10-30T08:07:45;13.10;99.90
12872;DHT22;6504;53.766;9.626;2022-10-30T08:10:14;13.10;99.90
12872;DHT22;6504;53.766;9.626;2022-10-30T08:12:42;13.10;99.90
12872;DHT22;6504;53.766;9.626;2022-10-30T08:15:11;13.10;99.90
12872;DHT22;6504;53.766;9.626;2022-10-30T08:17:45;13.10;99.90
12872;DHT22;6504;53.766;9.626;2022-10-30T08:20:15;13.10;99.90
12872;DHT22;6504;53.766;9.626;2022-10-30T08:22:45;13.10;99.90
12872;DHT22;6504;53.766;9.626;2022-10-30T08:25:14;13.10;99.90
12872;DHT22;6504;53.766;9.626;2022-10-30T08:27:50;13.20;99.90
12872;DHT22;6504;53.766;9.626;2022-10-30T08:30:18;13.20;99.90
12872;DHT22;6504;53.766;9.626;2022-10-30T08:32:48;13.20;99.90
12872;DHT22;6504;53.766;9.626;2022-10-30T08:35:16;13.20;99.90
12872;DHT22;6504;53.766;9.626;2022-10-30T08:37:46;13.30;99.90
12872;DHT22;6504;53.766;9.626;2022-10-30T08:40:14;13.30;99.90
12872;DHT22;6504;53.766;9.626;2022-10-30T08:42:49;13.30;99.90
12872;DHT22;6504;53.766;9.626;2022-10-30T08:45:18;13.40;99.90
12872;DHT22;6504;53.766;9.626;2022-10-30T08:47:48;13.40;99.90
12872;DHT22;6504;53.766;9.626;2022-10-30T08:50:23;13.50;99.90
12872;DHT22;6504;53.766;9.626;2022-10-30T08:52:51;13.50;99.90
12872;DHT22;6504;53.766;9.626;2022-10-30T08:55:20;13.50;99.90
12872;DHT22;6504;53.766;9.626;2022-10-30T08:57:48;13.60;99.90
12872;DHT22;6504;53.766;9.626;2022-10-30T09:00:17;13.60;99.90
12872;DHT22;6504;53.766;9.626;2022-10-30T09:02:45;13.70;99.90
12872;DHT22;6504;53.766;9.626;2022-10-30T09:05:14;13.70;99.90
12872;DHT22;6504;53.766;9.626;2022-10-30T09:07:42;13.70;99.90
12872;DHT22;6504;53.766;9.626;2022-10-30T09:10:11;13.80;99.90
12872;DHT22;6504;53.766;9.626;2022-10-30T09:12:39;13.90;99.90
12872;DHT22;6504;53.766;9.626;2022-10-30T09:15:07;13.90;99.90
12872;DHT22;6504;53.766;9.626;2022-10-30T09:17:35;14.00;99.90
12872;DHT22;6504;53.766;9.626;2022-10-30T09:20:04;14.00;99.90
12872;DHT22;6504;53.766;9.626;2022-10-30T09:22:37;14.10;99.90
12872;DHT22;6504;53.766;9.626;2022-10-30T09:25:07;14.20;99.90
12872;DHT22;6504;53.766;9.626;2022-10-30T09:27:36;14.20;99.90
12872;DHT22;6504;53.766;9.626;2022-10-30T09:30:06;14.30;99.90
12872;DHT22;6504;53.766;9.626;2022-10-30T09:32:34;14.30;99.90
12872;DHT22;6504;53.766;9.626;2022-10-30T09:35:02;14.40;99.90
12872;DHT22;6504;53.766;9.626;2022-10-30T09:37:34;14.40;99.90
12872;DHT22;6504;53.766;9.626;2022-10-30T09:40:02;14.50;99.90
12872;DHT22;6504;53.766;9.626;2022-10-30T09:42:41;14.50;99.90
12872;DHT22;6504;53.766;9.626;2022-10-30T09:45:38;14.60;99.90
12872;DHT22;6504;53.766;9.626;2022-10-30T09:48:25;14.60;99.90
12872;DHT22;6504;53.766;9.626;2022-10-30T09:51:04;14.70;99.90
12872;DHT22;6504;53.766;9.626;2022-10-30T09:53:44;14.70;99.90
12872;DHT22;6504;53.766;9.626;2022-10-30T09:56:21;14.80;99.90
12872;DHT22;6504;53.766;9.626;2022-10-30T09:59:02;14.90;99.90
12872;DHT22;6504;53.766;9.626;2022-10-30T10:01:37;14.90;99.90
12872;DHT22;6504;53.766;9.626;2022-10-30T10:04:18;15.00;99.90
12872;DHT22;6504;53.766;9.626;2022-10-30T10:06:55;15.10;99.90
12872;DHT22;6504;53.766;9.626;2022-10-30T10:09:27;15.10;99.90
12872;DHT22;6504;53.766;9.626;2022-10-30T10:11:59;15.20;99.90
12872;DHT22;6504;53.766;9.626;2022-10-30T10:14:31;15.30;99.90
12872;DHT22;6504;53.766;9.626;2022-10-30T10:17:04;15.30;99.90
12872;DHT22;6504;53.766;9.626;2022-10-30T10:19:37;15.40;99.90
12872;DHT22;6504;53.766;9.626;2022-10-30T10:22:16;15.40;99.90
12872;DHT22;6504;53.766;9.626;2022-10-30T10:24:47;15.50;99.90
12872;DHT22;6504;53.766;9.626;2022-10-30T10:27:25;15.50;99.90
12872;DHT22;6504;53.766;9.626;2022-10-30T10:30:00;15.60;99.90
12872;DHT22;6504;53.766;9.626;2022-10-30T10:32:44;15.70;99.90
12872;DHT22;6504;53.766;9.626;2022-10-30T10:38:28;15.80;99.90
12872;DHT22;6504;53.766;9.626;2022-10-30T10:41:08;15.80;99.90
12872;DHT22;6504;53.766;9.626;2022-10-30T10:43:44;15.90;99.90
12872;DHT22;6504;53.766;9.626;2022-10-30T10:46:27;16.00;99.90
12872;DHT22;6504;53.766;9.626;2022-10-30T10:49:10;16.00;99.90
12872;DHT22;6504;53.766;9.626;2022-10-30T10:51:43;16.00;99.90
12872;DHT22;6504;53.766;9.626;2022-10-30T10:54:15;16.10;99.90
12872;DHT22;6504;53.766;9.626;2022-10-30T10:56:49;16.10;99.90
12872;DHT22;6504;53.766;9.626;2022-10-30T10:59:20;16.20;99.90
12872;DHT22;6504;53.766;9.626;2022-10-30T11:01:55;16.20;99.90
12872;DHT22;6504;53.766;9.626;2022-10-30T11:04:30;16.30;99.90
12872;DHT22;6504;53.766;9.626;2022-10-30T11:07:10;16.30;99.90
12872;DHT22;6504;53.766;9.626;2022-10-30T11:09:40;16.40;99.90
12872;DHT22;6504;53.766;9.626;2022-10-30T11:12:10;16.40;99.90
12872;DHT22;6504;53.766;9.626;2022-10-30T11:14:38;16.50;99.90
12872;DHT22;6504;53.766;9.626;2022-10-30T11:17:14;16.50;99.90
12872;DHT22;6504;53.766;9.626;2022-10-30T11:19:47;16.50;99.90
12872;DHT22;6504;53.766;9.626;2022-10-30T11:22:21;16.60;99.90
12872;DHT22;6504;53.766;9.626;2022-10-30T11:24:50;16.60;99.90
12872;DHT22;6504;53.766;9.626;2022-10-30T11:27:25;16.60;99.90
12872;DHT22;6504;53.766;9.626;2022-10-30T11:29:56;16.60;99.90
12872;DHT22;6504;53.766;9.626;2022-10-30T11:32:27;16.70;99.90
12872;DHT22;6504;53.766;9.626;2022-10-30T11:35:10;16.70;99.90
12872;DHT22;6504;53.766;9.626;2022-10-30T11:37:40;16.80;99.90
12872;DHT22;6504;53.766;9.626;2022-10-30T11:40:16;16.80;99.90
12872;DHT22;6504;53.766;9.626;2022-10-30T11:42:48;16.80;99.90
12872;DHT22;6504;53.766;9.626;2022-10-30T11:45:19;16.90;99.90
12872;DHT22;6504;53.766;9.626;2022-10-30T11:47:51;16.90;99.90
12872;DHT22;6504;53.766;9.626;2022-10-30T11:50:26;17.00;99.90
12872;DHT22;6504;53.766;9.626;2022-10-30T11:52:56;17.00;99.90
12872;DHT22;6504;53.766;9.626;2022-10-30T11:55:28;17.00;99.90
12872;DHT22;6504;53.766;9.626;2022-10-30T11:57:59;17.00;99.90
12872;DHT22;6504;53.766;9.626;2022-10-30T12:00:31;17.10;99.90
12872;DHT22;6504;53.766;9.626;2022-10-30T12:03:00;17.10;99.90
12872;DHT22;6504;53.766;9.626;2022-10-30T12:05:33;17.10;99.90
12872;DHT22;6504;53.766;9.626;2022-10-30T12:08:19;17.10;99.90
12872;DHT22;6504;53.766;9.626;2022-10-30T12:10:57;17.10;99.90
12872;DHT22;6504;53.766;9.626;2022-10-30T12:13:32;17.20;99.90
12872;DHT22;6504;53.766;9.626;2022-10-30T12:16:18;17.20;99.90
12872;DHT22;6504;53.766;9.626;2022-10-30T12:18:56;17.20;99.90
12872;DHT22;6504;53.766;9.626;2022-10-30T12:21:27;17.20;99.90
12872;DHT22;6504;53.766;9.626;2022-10-30T12:23:57;17.30;99.90
12872;DHT22;6504;53.766;9.626;2022-10-30T12:26:27;17.30;99.90
12872;DHT22;6504;53.766;9.626;2022-10-30T12:29:00;17.30;99.90
12872;DHT22;6504;53.766;9.626;2022-10-30T12:31:34;17.40;99.90
12872;DHT22;6504;53.766;9.626;2022-10-30T12:34:13;17.40;99.90
12872;DHT22;6504;53.766;9.626;2022-10-30T12:36:49;17.40;99.90
12872;DHT22;6504;53.766;9.626;2022-10-30T12:39:23;17.50;99.90
12872;DHT22;6504;53.766;9.626;2022-10-30T12:41:58;17.50;99.90
12872;DHT22;6504;53.766;9.626;2022-10-30T12:44:33;17.50;99.90
12872;DHT22;6504;53.766;9.626;2022-10-30T12:47:05;17.50;99.90
12872;DHT22;6504;53.766;9.626;2022-10-30T12:49:39;17.50;99.90
12872;DHT22;6504;53.766;9.626;2022-10-30T12:52:11;17.60;99.90
12872;DHT22;6504;53.766;9.626;2022-10-30T12:54:46;17.60;99.90
12872;DHT22;6504;53.766;9.626;2022-10-30T12:57:19;17.60;99.90
12872;DHT22;6504;53.766;9.626;2022-10-30T12:59:58;17.60;99.90
12872;DHT22;6504;53.766;9.626;2022-10-30T13:02:39;17.60;99.90
12872;DHT22;6504;53.766;9.626;2022-10-30T13:05:20;17.70;99.90
12872;DHT22;6504;53.766;9.626;2022-10-30T13:07:59;17.70;99.90
12872;DHT22;6504;53.766;9.626;2022-10-30T13:10:32;17.70;99.90
12872;DHT22;6504;53.766;9.626;2022-10-30T13:13:04;17.70;99.90
12872;DHT22;6504;53.766;9.626;2022-10-30T13:15:38;17.80;99.90
12872;DHT22;6504;53.766;9.626;2022-10-30T13:18:14;17.80;99.90
12872;DHT22;6504;53.766;9.626;2022-10-30T13:20:47;17.80;99.90
12872;DHT22;6504;53.766;9.626;2022-10-30T13:23:21;17.90;99.90
12872;DHT22;6504;53.766;9.626;2022-10-30T13:26:02;17.90;99.90
12872;DHT22;6504;53.766;9.626;2022-10-30T13:28:34;17.90;99.90
12872;DHT22;6504;53.766;9.626;2022-10-30T13:31:11;17.90;99.90
12872;DHT22;6504;53.766;9.626;2022-10-30T13:33:51;17.90;99.90
12872;DHT22;6504;53.766;9.626;2022-10-30T13:36:25;17.90;99.90
12872;DHT22;6504;53.766;9.626;2022-10-30T13:38:59;17.90;99.90
12872;DHT22;6504;53.766;9.626;2022-10-30T13:41:38;18.00;99.90
12872;DHT22;6504;53.766;9.626;2022-10-30T13:44:18;18.00;99.90
12872;DHT22;6504;53.766;9.626;2022-10-30T13:47:01;18.00;99.90
12872;DHT22;6504;53.766;9.626;2022-10-30T13:49:47;18.00;99.90
12872;DHT22;6504;53.766;9.626;2022-10-30T13:52:20;18.00;99.90
12872;DHT22;6504;53.766;9.626;2022-10-30T13:54:54;18.00;99.90
12872;DHT22;6504;53.766;9.626;2022-10-30T13:57:27;18.00;99.90
12872;DHT22;6504;53.766;9.626;2022-10-30T14:00:02;18.10;99.90
12872;DHT22;6504;53.766;9.626;2022-10-30T14:03:04;18.10;99.90
12872;DHT22;6504;53.766;9.626;2022-10-30T14:05:44;18.10;99.90
12872;DHT22;6504;53.766;9.626;2022-10-30T14:08:20;18.10;99.90
12872;DHT22;6504;53.766;9.626;2022-10-30T14:10:52;18.20;99.90
12872;DHT22;6504;53.766;9.626;2022-10-30T14:13:27;18.20;99.90
12872;DHT22;6504;53.766;9.626;2022-10-30T14:15:59;18.20;99.90
12872;DHT22;6504;53.766;9.626;2022-10-30T14:18:42;18.10;99.90
12872;DHT22;6504;53.766;9.626;2022-10-30T14:21:41;18.10;99.90
12872;DHT22;6504;53.766;9.626;2022-10-30T14:24:12;18.10;99.90
12872;DHT22;6504;53.766;9.626;2022-10-30T14:26:46;18.10;99.90
12872;DHT22;6504;53.766;9.626;2022-10-30T14:29:49;18.10;99.90
12872;DHT22;6504;53.766;9.626;2022-10-30T14:32:40;18.10;99.90
12872;DHT22;6504;53.766;9.626;2022-10-30T14:35:38;18.10;99.90
12872;DHT22;6504;53.766;9.626;2022-10-30T14:38:26;18.10;99.90
12872;DHT22;6504;53.766;9.626;2022-10-30T14:41:19;18.20;99.90
12872;DHT22;6504;53.766;9.626;2022-10-30T14:46:46;18.20;99.90
12872;DHT22;6504;53.766;9.626;2022-10-30T14:49:45;18.20;99.90
12872;DHT22;6504;53.766;9.626;2022-10-30T14:52:27;18.10;99.90
12872;DHT22;6504;53.766;9.626;2022-10-30T14:55:04;18.10;99.90
12872;DHT22;6504;53.766;9.626;2022-10-30T14:57:45;18.10;99.90
12872;DHT22;6504;53.766;9.626;2022-10-30T15:00:37;18.00;99.90
12872;DHT22;6504;53.766;9.626;2022-10-30T15:03:09;18.00;99.90
12872;DHT22;6504;53.766;9.626;2022-10-30T15:05:51;18.00;99.90
12872;DHT22;6504;53.766;9.626;2022-10-30T15:08:36;18.00;99.90
12872;DHT22;6504;53.766;9.626;2022-10-30T15:11:35;17.90;99.90
12872;DHT22;6504;53.766;9.626;2022-10-30T15:14:06;17.80;99.90
12872;DHT22;6504;53.766;9.626;2022-10-30T15:16:52;17.80;99.90
12872;DHT22;6504;53.766;9.626;2022-10-30T15:19:21;17.70;99.90
12872;DHT22;6504;53.766;9.626;2022-10-30T15:21:52;17.70;99.90
12872;DHT22;6504;53.766;9.626;2022-10-30T15:24:23;17.60;99.90
12872;DHT22;6504;53.766;9.626;2022-10-30T15:26:59;17.60;99.90
12872;DHT22;6504;53.766;9.626;2022-10-30T15:29:30;17.50;99.90
12872;DHT22;6504;53.766;9.626;2022-10-30T15:32:01;17.50;99.90
12872;DHT22;6504;53.766;9.626;2022-10-30T15:34:31;17.40;99.90
12872;DHT22;6504;53.766;9.626;2022-10-30T15:37:09;17.40;99.90
12872;DHT22;6504;53.766;9.626;2022-10-30T15:39:39;17.30;99.90
12872;DHT22;6504;53.766;9.626;2022-10-30T15:42:08;17.30;99.90
12872;DHT22;6504;53.766;9.626;2022-10-30T15:44:38;17.20;99.90
12872;DHT22;6504;53.766;9.626;2022-10-30T15:47:12;17.20;99.90
12872;DHT22;6504;53.766;9.626;2022-10-30T15:49:46;17.10;99.90
12872;DHT22;6504;53.766;9.626;2022-10-30T15:52:19;17.00;99.90
12872;DHT22;6504;53.766;9.626;2022-10-30T15:54:53;16.90;99.90
12872;DHT22;6504;53.766;9.626;2022-10-30T15:57:26;16.90;99.90
12872;DHT22;6504;53.766;9.626;2022-10-30T16:00:20;16.80;99.90
12872;DHT22;6504;53.766;9.626;2022-10-30T16:02:58;16.80;99.90
12872;DHT22;6504;53.766;9.626;2022-10-30T16:05:27;16.70;99.90
12872;DHT22;6504;53.766;9.626;2022-10-30T16:07:58;16.70;99.90
12872;DHT22;6504;53.766;9.626;2022-10-30T16:10:32;16.70;99.90
12872;DHT22;6504;53.766;9.626;2022-10-30T16:13:02;16.70;99.90
12872;DHT22;6504;53.766;9.626;2022-10-30T16:15:32;16.60;99.90
12872;DHT22;6504;53.766;9.626;2022-10-30T16:18:07;16.50;99.90
12872;DHT22;6504;53.766;9.626;2022-10-30T16:20:41;16.50;99.90
12872;DHT22;6504;53.766;9.626;2022-10-30T16:23:11;16.40;99.90